createdAt,value
2023-05-15T00:00:01.902Z,69.05
2023-05-15T00:02:57.315Z,68.82
2023-05-15T00:05:41.548Z,70.34
2023-05-15T00:08:25.449Z,70.63
2023-05-15T00:11:10.764Z,70.32
2023-05-15T00:13:54.701Z,70.37
2023-05-15T00:16:38.513Z,69.90
2023-05-15T00:19:22.546Z,70.77
2023-05-15T00:22:06.822Z,70.30
2023-05-15T00:24:50.671Z,70.24
2023-05-15T00:27:36.233Z,71.92
2023-05-15T00:30:21.065Z,72.01
2023-05-15T00:33:05.169Z,72.51
2023-05-15T00:35:49.058Z,72.18
2023-05-15T00:38:34.587Z,71.74
2023-05-15T00:41:23.781Z,72.42
2023-05-15T00:44:11.151Z,71.85
2023-05-15T00:46:57.380Z,71.31
2023-05-15T00:49:42.212Z,71.49
2023-05-15T00:52:26.366Z,70.50
2023-05-15T00:55:10.652Z,69.48
2023-05-15T00:57:55.786Z,70.40
2023-05-15T01:00:41.345Z,68.56
2023-05-15T01:03:25.467Z,67.12
2023-05-15T01:06:09.380Z,68.30
2023-05-15T01:08:54.960Z,67.44
2023-05-15T01:11:40.540Z,67.08
2023-05-15T01:14:24.457Z,66.20
2023-05-15T01:17:10.039Z,65.28
2023-05-15T01:19:54.219Z,65.00
2023-05-15T01:22:53.233Z,64.29
2023-05-15T01:26:17.000Z,64.62
2023-05-15T01:29:06.029Z,64.09
2023-05-15T01:32:00.632Z,64.21
2023-05-15T01:34:49.726Z,64.21
2023-05-15T01:37:36.401Z,64.27
2023-05-15T01:40:23.865Z,65.07
2023-05-15T01:43:12.982Z,64.62
2023-05-15T01:46:00.548Z,65.86
2023-05-15T01:48:47.481Z,65.74
2023-05-15T01:51:33.189Z,66.04
2023-05-15T01:54:18.178Z,67.51
2023-05-15T01:57:02.554Z,67.78
2023-05-15T01:59:47.171Z,68.44
2023-05-15T02:02:33.034Z,70.37
2023-05-15T02:05:18.671Z,72.34
2023-05-15T02:08:05.697Z,72.76
2023-05-15T02:10:51.060Z,71.49
2023-05-15T02:13:38.240Z,71.68
2023-05-15T02:16:22.497Z,73.10
2023-05-15T02:19:08.221Z,72.24
2023-05-15T02:21:51.911Z,73.18
2023-05-15T02:24:35.832Z,73.55
2023-05-15T02:27:24.593Z,74.05
2023-05-15T02:30:18.945Z,75.44
2023-05-15T02:33:13.764Z,74.26
2023-05-15T02:36:03.214Z,74.57
2023-05-15T02:38:50.508Z,73.91
2023-05-15T02:41:39.375Z,75.00
2023-05-15T02:44:23.896Z,76.01
2023-05-15T02:47:08.916Z,76.38
2023-05-15T02:49:53.238Z,76.83
2023-05-15T02:52:38.428Z,76.46
2023-05-15T02:55:22.267Z,76.91
2023-05-15T02:58:06.621Z,76.64
2023-05-15T03:00:50.535Z,76.82
2023-05-15T03:03:35.032Z,77.41
2023-05-15T03:06:18.972Z,76.77
2023-05-15T03:09:04.188Z,79.04
2023-05-15T03:11:48.061Z,76.75
2023-05-15T03:14:31.898Z,77.85
2023-05-15T03:17:16.116Z,76.88
2023-05-15T03:20:00.620Z,75.93
2023-05-15T03:22:44.572Z,75.78
2023-05-15T03:25:29.850Z,75.75
2023-05-15T03:28:13.717Z,77.72
2023-05-15T03:30:57.628Z,76.53
2023-05-15T03:33:41.879Z,77.33
2023-05-15T03:36:25.693Z,76.95
2023-05-15T03:39:10.053Z,76.81
2023-05-15T03:41:58.877Z,75.75
2023-05-15T03:44:42.789Z,75.53
2023-05-15T03:47:26.747Z,75.71
2023-05-15T03:50:11.513Z,75.84
2023-05-15T03:52:55.557Z,75.44
2023-05-15T03:55:39.430Z,73.74
2023-05-15T03:58:26.782Z,73.55
2023-05-15T04:01:10.670Z,73.94
2023-05-15T04:03:54.464Z,73.30
2023-05-15T04:06:38.416Z,72.06
2023-05-15T04:09:22.203Z,71.21
2023-05-15T04:12:07.103Z,70.83
2023-05-15T04:14:52.368Z,70.77
2023-05-15T04:17:36.284Z,70.44
2023-05-15T04:20:22.446Z,69.52
2023-05-15T04:23:06.316Z,67.87
2023-05-15T04:25:50.280Z,67.17
2023-05-15T04:28:34.208Z,67.60
2023-05-15T04:31:19.907Z,67.10
2023-05-15T04:34:04.446Z,67.08
2023-05-15T04:36:49.006Z,66.75
2023-05-15T04:39:32.856Z,67.50
2023-05-15T04:42:16.730Z,68.22
2023-05-15T04:45:00.833Z,66.45
2023-05-15T04:47:46.996Z,66.38
2023-05-15T04:50:31.051Z,65.22
2023-05-15T04:53:15.269Z,66.33
2023-05-15T04:55:59.195Z,66.20
2023-05-15T04:58:42.905Z,65.58
2023-05-15T05:01:26.924Z,65.82
2023-05-15T05:04:12.213Z,66.97
2023-05-15T05:06:56.080Z,66.16
2023-05-15T05:09:40.864Z,65.84
2023-05-15T05:12:26.035Z,67.45
2023-05-15T05:15:14.430Z,66.83
2023-05-15T05:17:58.323Z,66.10
2023-05-15T05:20:43.652Z,64.51
2023-05-15T05:23:27.488Z,62.63
2023-05-15T05:26:11.519Z,62.03
2023-05-15T05:28:55.395Z,61.63
2023-05-15T05:31:39.511Z,60.77
2023-05-15T05:34:23.692Z,59.50
2023-05-15T05:37:08.959Z,57.62
2023-05-15T05:39:53.032Z,56.44
2023-05-15T05:42:36.806Z,57.69
2023-05-15T05:45:20.706Z,55.83
2023-05-15T05:48:04.633Z,55.52
2023-05-15T05:50:48.465Z,55.09
2023-05-15T05:53:33.711Z,55.03
2023-05-15T05:56:17.580Z,53.50
2023-05-15T05:59:02.106Z,52.97
2023-05-15T06:01:46.221Z,54.78
2023-05-15T06:04:30.410Z,55.13
2023-05-15T06:07:14.303Z,55.31
2023-05-15T06:09:59.558Z,55.49
2023-05-15T06:12:43.723Z,55.13
2023-05-15T06:15:27.864Z,55.10
2023-05-15T06:18:12.039Z,54.07
2023-05-15T06:20:56.179Z,53.45
2023-05-15T06:23:39.878Z,54.67
2023-05-15T06:26:25.825Z,56.83
2023-05-15T06:29:10.018Z,57.02
2023-05-15T06:31:53.914Z,56.46
2023-05-15T06:34:37.932Z,54.94
2023-05-15T06:37:21.979Z,53.73
2023-05-15T06:40:07.161Z,52.14
2023-05-15T06:42:52.673Z,51.02
2023-05-15T06:45:36.498Z,48.57
2023-05-15T06:48:20.696Z,48.14
2023-05-15T06:51:05.143Z,46.03
2023-05-15T06:53:48.946Z,47.50
2023-05-15T06:56:32.853Z,46.90
2023-05-15T06:59:18.368Z,46.57
2023-05-15T07:02:02.671Z,45.17
2023-05-15T07:04:47.048Z,45.35
2023-05-15T07:07:31.033Z,43.69
2023-05-15T07:10:15.186Z,43.82
2023-05-15T07:12:59.152Z,44.93
2023-05-15T07:15:44.600Z,44.67
2023-05-15T07:18:28.899Z,42.20
2023-05-15T07:21:12.925Z,42.73
2023-05-15T07:23:56.887Z,42.01
2023-05-15T07:26:50.355Z,41.88
2023-05-15T07:29:41.429Z,42.05
2023-05-15T07:32:26.775Z,42.89
2023-05-15T07:35:12.609Z,43.18
2023-05-15T07:37:56.680Z,43.33
2023-05-15T07:40:40.763Z,43.91
2023-05-15T07:43:24.763Z,44.96
2023-05-15T07:46:08.709Z,43.63
2023-05-15T07:48:54.787Z,44.33
2023-05-15T07:51:38.814Z,44.11
2023-05-15T07:54:22.837Z,42.38
2023-05-15T07:57:07.241Z,42.20
2023-05-15T07:59:51.306Z,41.62
2023-05-15T08:02:35.283Z,42.64
2023-05-15T08:05:20.785Z,42.61
2023-05-15T08:08:04.964Z,42.39
2023-05-15T08:10:48.740Z,44.29
2023-05-15T08:13:33.010Z,43.66
2023-05-15T08:16:17.369Z,44.14
2023-05-15T08:19:04.941Z,43.54
2023-05-15T08:21:51.306Z,43.78
2023-05-15T08:24:36.090Z,43.60
2023-05-15T08:27:20.634Z,43.64
2023-05-15T08:30:05.376Z,43.98
2023-05-15T08:32:52.104Z,45.46
2023-05-15T08:35:36.501Z,44.56
2023-05-15T08:38:22.564Z,43.23
2023-05-15T08:41:12.440Z,43.41
2023-05-15T08:43:57.702Z,42.63
2023-05-15T08:46:42.316Z,42.29
2023-05-15T08:49:34.080Z,41.30
2023-05-15T08:52:18.770Z,41.52
2023-05-15T08:55:04.800Z,41.51
2023-05-15T08:57:50.786Z,41.93
2023-05-15T09:00:35.164Z,40.73
2023-05-15T09:03:20.081Z,41.00
2023-05-15T09:06:06.450Z,39.74
2023-05-15T09:08:52.611Z,39.20
2023-05-15T09:11:39.148Z,39.67
2023-05-15T09:14:23.338Z,38.48
2023-05-15T09:17:07.386Z,38.71
2023-05-15T09:19:51.520Z,39.06
2023-05-15T09:22:37.134Z,38.34
2023-05-15T09:25:34.636Z,39.02
2023-05-15T09:28:29.711Z,39.95
2023-05-15T09:31:13.931Z,38.27
2023-05-15T09:34:02.041Z,39.08
2023-05-15T09:36:46.004Z,39.04
2023-05-15T09:39:30.151Z,38.18
2023-05-15T09:42:15.897Z,37.87
2023-05-15T09:45:01.394Z,37.19
2023-05-15T09:47:51.520Z,36.09
2023-05-15T09:50:37.299Z,36.28
2023-05-15T09:53:23.586Z,36.04
2023-05-15T09:56:08.256Z,36.15
2023-05-15T09:58:56.202Z,36.54
2023-05-15T10:01:44.989Z,35.21
2023-05-15T10:04:35.951Z,35.86
2023-05-15T10:07:29.209Z,36.08
2023-05-15T10:10:13.918Z,34.62
2023-05-15T10:12:59.950Z,34.74
2023-05-15T10:15:45.979Z,34.18
2023-05-15T10:18:33.922Z,35.11
2023-05-15T10:21:20.807Z,35.63
2023-05-15T10:24:05.734Z,36.31
2023-05-15T10:26:50.834Z,35.36
2023-05-15T10:29:36.476Z,35.28
2023-05-15T10:32:21.491Z,36.10
2023-05-15T10:35:07.842Z,36.24
2023-05-15T10:37:51.863Z,35.67
2023-05-15T10:40:38.901Z,35.95
2023-05-15T10:43:23.960Z,34.99
2023-05-15T10:46:09.021Z,34.46
2023-05-15T10:48:53.512Z,33.90
2023-05-15T10:51:41.172Z,34.28
2023-05-15T10:54:25.731Z,34.40
2023-05-15T10:57:10.684Z,34.06
2023-05-15T10:59:54.813Z,34.64
2023-05-15T11:02:40.801Z,34.76
2023-05-15T11:05:25.969Z,34.50
2023-05-15T11:08:27.616Z,36.40
2023-05-15T11:11:50.249Z,37.29
2023-05-15T11:14:37.110Z,36.51
2023-05-15T11:17:22.562Z,38.41
2023-05-15T11:20:07.632Z,37.23
2023-05-15T11:23:00.433Z,36.90
2023-05-15T11:25:54.752Z,36.78
2023-05-15T11:28:47.323Z,36.03
2023-05-15T11:31:31.925Z,36.21
2023-05-15T11:34:16.365Z,36.47
2023-05-15T11:37:01.406Z,36.41
2023-05-15T11:39:47.696Z,35.56
2023-05-15T11:42:33.610Z,36.09
2023-05-15T11:45:18.062Z,36.04
2023-05-15T11:48:03.917Z,35.64
2023-05-15T11:50:48.336Z,37.87
2023-05-15T11:53:34.053Z,37.10
2023-05-15T11:56:21.835Z,36.99
2023-05-15T11:59:07.654Z,36.41
2023-05-15T12:01:51.774Z,36.93
2023-05-15T12:04:36.107Z,36.18
2023-05-15T12:07:20.504Z,35.63
2023-05-15T12:10:04.869Z,38.20
2023-05-15T12:12:50.637Z,38.92
2023-05-15T12:15:39.190Z,38.87
2023-05-15T12:18:23.473Z,37.96
2023-05-15T12:21:07.778Z,37.79
2023-05-15T12:24:06.435Z,39.97
2023-05-15T12:26:52.070Z,38.01
2023-05-15T12:29:37.179Z,38.03
2023-05-15T12:32:23.037Z,37.92
2023-05-15T12:35:07.815Z,38.30
2023-05-15T12:37:52.164Z,39.03
2023-05-15T12:40:37.311Z,39.48
2023-05-15T12:43:21.990Z,39.11
2023-05-15T12:46:06.654Z,38.59
2023-05-15T12:48:53.090Z,39.29
2023-05-15T12:51:44.042Z,40.91
2023-05-15T12:54:28.152Z,41.12
2023-05-15T12:57:13.107Z,40.82
2023-05-15T12:59:57.503Z,42.50
2023-05-15T13:02:46.077Z,41.62
2023-05-15T13:05:34.406Z,38.86
2023-05-15T13:08:19.642Z,41.43
2023-05-15T13:11:03.879Z,39.60
2023-05-15T13:13:49.383Z,38.66
2023-05-15T13:16:33.576Z,38.89
2023-05-15T13:19:17.930Z,39.14
2023-05-15T13:22:03.494Z,40.08
2023-05-15T13:24:47.492Z,38.78
2023-05-15T13:27:31.514Z,36.92
2023-05-15T13:30:16.158Z,40.06
2023-05-15T13:33:01.228Z,40.58
2023-05-15T13:35:45.308Z,37.94
2023-05-15T13:38:31.356Z,36.85
2023-05-15T13:41:15.332Z,36.52
2023-05-15T13:43:59.313Z,35.72
2023-05-15T13:46:43.367Z,38.04
2023-05-15T13:49:27.286Z,37.72
2023-05-15T13:52:11.215Z,36.87
2023-05-15T13:54:56.796Z,36.28
2023-05-15T13:57:42.391Z,36.15
2023-05-15T14:00:26.651Z,37.87
2023-05-15T14:03:12.735Z,36.96
2023-05-15T14:05:58.811Z,36.17
2023-05-15T14:08:42.646Z,36.70
2023-05-15T14:11:28.027Z,35.30
2023-05-15T14:14:11.797Z,35.67
2023-05-15T14:16:55.610Z,34.57
2023-05-15T14:19:39.720Z,34.23
2023-05-15T14:22:29.311Z,35.68
2023-05-15T14:25:13.220Z,35.97
2023-05-15T14:27:58.480Z,37.10
2023-05-15T14:30:42.293Z,38.31
2023-05-15T14:33:26.761Z,37.89
2023-05-15T14:36:10.717Z,35.54
2023-05-15T14:38:54.495Z,37.21
2023-05-15T14:41:38.354Z,36.31
2023-05-15T14:44:23.701Z,36.62
2023-05-15T14:47:09.072Z,36.14
2023-05-15T14:49:52.948Z,36.74
2023-05-15T14:52:37.008Z,35.55
2023-05-15T14:55:22.249Z,36.10
2023-05-15T14:58:07.096Z,36.86
2023-05-15T15:00:52.588Z,37.83
2023-05-15T15:03:36.760Z,37.20
2023-05-15T15:06:20.817Z,37.60
2023-05-15T15:09:04.980Z,38.36
2023-05-15T15:11:49.037Z,38.20
2023-05-15T15:14:33.323Z,41.28
2023-05-15T15:17:18.957Z,42.61
2023-05-15T15:20:05.487Z,41.47
2023-05-15T15:22:49.608Z,41.87
2023-05-15T15:25:34.718Z,39.97
2023-05-15T15:28:18.747Z,41.00
2023-05-15T15:31:02.653Z,39.91
2023-05-15T15:33:48.163Z,40.02
2023-05-15T15:36:32.670Z,39.70
2023-05-15T15:39:16.501Z,41.65
2023-05-15T15:42:00.382Z,41.51
2023-05-15T15:44:44.504Z,41.83
2023-05-15T15:47:29.632Z,42.33
2023-05-15T15:50:14.928Z,43.47
2023-05-15T15:52:58.767Z,43.98
2023-05-15T15:55:43.478Z,42.94
2023-05-15T15:58:28.699Z,41.68
2023-05-15T16:01:12.569Z,41.61
2023-05-15T16:03:56.401Z,41.01
2023-05-15T16:06:41.576Z,41.82
2023-05-15T16:09:25.531Z,42.43
2023-05-15T16:12:09.901Z,43.16
2023-05-15T16:14:54.400Z,43.27
2023-05-15T16:17:39.070Z,43.48
2023-05-15T16:20:22.906Z,44.40
2023-05-15T16:23:09.593Z,43.58
2023-05-15T16:25:53.522Z,44.38
2023-05-15T16:28:37.359Z,44.00
2023-05-15T16:31:21.559Z,44.86
2023-05-15T16:34:05.722Z,46.17
2023-05-15T16:36:49.598Z,45.79
2023-05-15T16:39:38.740Z,45.76
2023-05-15T16:42:22.745Z,46.21
2023-05-15T16:45:07.890Z,45.88
2023-05-15T16:47:51.885Z,44.12
2023-05-15T16:50:37.400Z,44.41
2023-05-15T16:53:21.846Z,45.51
2023-05-15T16:56:08.072Z,46.68
2023-05-15T16:58:53.047Z,47.35
2023-05-15T17:01:36.959Z,46.82
2023-05-15T17:04:20.896Z,45.83
2023-05-15T17:07:05.524Z,44.72
2023-05-15T17:09:49.343Z,43.91
2023-05-15T17:12:35.052Z,44.12
2023-05-15T17:15:19.141Z,44.32
2023-05-15T17:18:03.075Z,44.11
2023-05-15T17:20:46.872Z,43.97
2023-05-15T17:23:30.690Z,44.33
2023-05-15T17:26:14.806Z,44.70
2023-05-15T17:28:59.975Z,44.17
2023-05-15T17:31:43.838Z,44.96
2023-05-15T17:34:28.011Z,44.82
2023-05-15T17:37:12.500Z,44.67
2023-05-15T17:39:56.543Z,44.67
2023-05-15T17:42:40.480Z,45.19
2023-05-15T17:45:27.090Z,44.99
2023-05-15T17:48:11.383Z,43.96
2023-05-15T17:50:55.531Z,44.91
2023-05-15T17:53:39.641Z,44.00
2023-05-15T17:56:23.831Z,43.63
2023-05-15T17:59:07.700Z,44.98
2023-05-15T18:01:53.112Z,46.24
2023-05-15T18:04:37.079Z,45.86
2023-05-15T18:07:21.311Z,46.53
2023-05-15T18:10:06.617Z,47.48
2023-05-15T18:12:50.855Z,47.93
2023-05-15T18:15:35.310Z,48.51
2023-05-15T18:18:20.616Z,48.95
2023-05-15T18:21:05.554Z,47.93
2023-05-15T18:23:49.581Z,48.54
2023-05-15T18:26:33.641Z,48.44
2023-05-15T18:29:17.693Z,48.37
2023-05-15T18:32:01.826Z,48.69
2023-05-15T18:34:47.911Z,49.67
2023-05-15T18:37:31.967Z,50.08
2023-05-15T18:40:16.242Z,49.14
2023-05-15T18:43:00.244Z,48.38
2023-05-15T18:45:44.042Z,48.71
2023-05-15T18:48:27.950Z,48.36
2023-05-15T18:51:14.361Z,48.85
2023-05-15T18:53:58.476Z,50.01
2023-05-15T18:56:43.250Z,49.65
2023-05-15T18:59:27.737Z,49.68
2023-05-15T19:02:11.727Z,50.62
2023-05-15T19:04:55.663Z,51.48
2023-05-15T19:07:42.744Z,52.23
2023-05-15T19:10:29.286Z,52.43
2023-05-15T19:13:13.253Z,52.42
2023-05-15T19:15:57.271Z,52.17
2023-05-15T19:18:41.171Z,53.23
2023-05-15T19:21:25.095Z,52.93
2023-05-15T19:24:10.689Z,53.22
2023-05-15T19:26:55.197Z,54.51
2023-05-15T19:29:40.021Z,55.97
2023-05-15T19:32:25.149Z,55.25
2023-05-15T19:35:10.097Z,56.25
2023-05-15T19:37:54.135Z,57.50
2023-05-15T19:40:39.457Z,59.40
2023-05-15T19:43:23.318Z,58.34
2023-05-15T19:46:07.857Z,57.58
2023-05-15T19:48:51.982Z,57.51
2023-05-15T19:51:35.949Z,58.37
2023-05-15T19:54:19.886Z,58.56
2023-05-15T19:57:05.596Z,59.19
2023-05-15T19:59:49.662Z,59.40
2023-05-15T20:02:33.641Z,59.50
2023-05-15T20:05:17.709Z,59.72
2023-05-15T20:08:01.539Z,62.89
2023-05-15T20:10:45.851Z,64.33
2023-05-15T20:13:31.469Z,63.94
2023-05-15T20:16:16.696Z,64.67
2023-05-15T20:19:00.675Z,64.96
2023-05-15T20:21:44.492Z,67.23
2023-05-15T20:24:28.384Z,68.03
2023-05-15T20:27:12.401Z,67.26
2023-05-15T20:29:57.653Z,67.83
2023-05-15T20:32:41.677Z,69.20
2023-05-15T20:35:26.828Z,68.09
2023-05-15T20:38:11.937Z,67.52
2023-05-15T20:40:56.859Z,67.63
2023-05-15T20:43:40.688Z,69.10
2023-05-15T20:46:29.526Z,68.26
2023-05-15T20:49:13.666Z,67.42
2023-05-15T20:51:57.636Z,67.45
2023-05-15T20:54:41.535Z,67.61
2023-05-15T20:57:25.333Z,68.34
2023-05-15T21:00:10.670Z,68.11
2023-05-15T21:02:55.979Z,67.24
2023-05-15T21:05:39.885Z,67.76
2023-05-15T21:08:24.132Z,67.44
2023-05-15T21:11:08.091Z,67.53
2023-05-15T21:13:52.124Z,69.00
2023-05-15T21:16:36.542Z,69.50
2023-05-15T21:19:21.920Z,69.14
2023-05-15T21:22:06.240Z,68.84
2023-05-15T21:24:49.997Z,69.02
2023-05-15T21:27:33.949Z,69.18
2023-05-15T21:30:17.949Z,68.66
2023-05-15T21:33:01.967Z,69.17
2023-05-15T21:35:47.552Z,70.50
2023-05-15T21:38:32.861Z,70.67
2023-05-15T21:41:16.994Z,71.02
2023-05-15T21:44:01.005Z,70.85
2023-05-15T21:46:44.850Z,72.01
2023-05-15T21:49:28.837Z,72.47
2023-05-15T21:52:14.089Z,71.88
2023-05-15T21:54:57.895Z,72.95
2023-05-15T21:57:41.806Z,74.18
2023-05-15T22:00:25.982Z,74.42
2023-05-15T22:03:10.078Z,73.80
2023-05-15T22:05:54.075Z,72.92
2023-05-15T22:08:39.283Z,73.85
2023-05-15T22:11:23.676Z,74.35
2023-05-15T22:14:07.765Z,73.54
2023-05-15T22:16:51.696Z,73.90
2023-05-15T22:19:35.768Z,74.30
2023-05-15T22:22:19.751Z,74.31
2023-05-15T22:25:05.445Z,74.38
2023-05-15T22:27:49.529Z,74.23
2023-05-15T22:30:33.295Z,74.60
2023-05-15T22:33:17.064Z,74.30
2023-05-15T22:36:02.305Z,73.70
2023-05-15T22:38:46.149Z,74.07
2023-05-15T22:41:34.428Z,74.63
2023-05-15T22:44:18.302Z,74.07
2023-05-15T22:47:02.198Z,73.54
2023-05-15T22:49:46.090Z,73.21
2023-05-15T22:52:29.931Z,73.29
2023-05-15T22:55:14.047Z,73.00
2023-05-15T22:57:59.462Z,75.02
2023-05-15T23:00:43.616Z,76.13
2023-05-15T23:03:27.723Z,76.20
2023-05-15T23:06:17.261Z,77.34
2023-05-15T23:09:01.924Z,77.31
2023-05-15T23:11:45.977Z,76.28
2023-05-15T23:14:31.366Z,76.41
2023-05-15T23:17:15.651Z,76.62
2023-05-15T23:19:59.704Z,77.50
2023-05-15T23:22:43.710Z,76.59
2023-05-15T23:25:27.731Z,76.63
2023-05-15T23:28:11.825Z,76.75
2023-05-15T23:30:57.482Z,75.72
2023-05-15T23:33:41.691Z,75.29
2023-05-15T23:36:25.777Z,74.91
2023-05-15T23:39:09.839Z,75.31
2023-05-15T23:41:53.817Z,75.13
2023-05-15T23:44:37.893Z,74.89
2023-05-15T23:47:23.368Z,74.69
2023-05-15T23:50:09.219Z,73.91
2023-05-15T23:52:53.113Z,74.06
2023-05-15T23:55:37.177Z,73.91
2023-05-15T23:58:21.610Z,74.29
